O'neill, Nebraska
Current Conditions -  °F | °C
As of 4:55 PM on Tuesday 27 Jan 2015 (Local Time) from KONL Reporting Station
Clear Clear  
Wind Chill: 58°   Ceiling: Unl
Heat Index: 58°   Visibility: 10mi
Dew Point: 37°   Wind: 8mph
Humidity: 46%   Direction: 150°SSE
Pressure: 29.92"   Gusts: NA
Location:  42.47°N, 98.68°W
Report Text: KONL 272255Z AUTO 15007KT 10SM CLR 14/03 A2992 RMK AO2 T01420028
Loading
Personal Weather Stations






























Interactive Weather Map New forecast layout! Learn more

10-Day Weather Forecast

Advertisements
Track Severe Weather on mobile